sensor_id;sensor_type;location;lat;lon;timestamp;P1;durP1;ratioP1;P2;durP2;ratioP2
38117;SDS011;23928;47.562;7.508;2024-02-15T00:01:57;6.03;;;4.33;;
38117;SDS011;23928;47.562;7.508;2024-02-15T00:04:22;5.83;;;4.40;;
38117;SDS011;23928;47.562;7.508;2024-02-15T00:06:48;13.70;;;4.90;;
38117;SDS011;23928;47.562;7.508;2024-02-15T00:09:14;5.40;;;4.23;;
38117;SDS011;23928;47.562;7.508;2024-02-15T00:11:39;4.93;;;4.13;;
38117;SDS011;23928;47.562;7.508;2024-02-15T00:14:05;4.47;;;3.43;;
38117;SDS011;23928;47.562;7.508;2024-02-15T00:16:32;4.03;;;3.23;;
38117;SDS011;23928;47.562;7.508;2024-02-15T00:18:59;4.53;;;4.00;;
38117;SDS011;23928;47.562;7.508;2024-02-15T00:21:24;5.00;;;3.77;;
38117;SDS011;23928;47.562;7.508;2024-02-15T00:23:50;4.73;;;3.47;;
38117;SDS011;23928;47.562;7.508;2024-02-15T00:26:16;5.90;;;3.97;;
38117;SDS011;23928;47.562;7.508;2024-02-15T00:28:41;5.97;;;4.40;;
38117;SDS011;23928;47.562;7.508;2024-02-15T00:31:07;7.47;;;3.73;;
38117;SDS011;23928;47.562;7.508;2024-02-15T00:33:33;7.00;;;4.53;;
38117;SDS011;23928;47.562;7.508;2024-02-15T00:36:01;6.30;;;3.97;;
38117;SDS011;23928;47.562;7.508;2024-02-15T00:38:28;3.73;;;3.17;;
38117;SDS011;23928;47.562;7.508;2024-02-15T00:40:54;5.90;;;3.53;;
38117;SDS011;23928;47.562;7.508;2024-02-15T00:43:20;5.47;;;3.20;;
38117;SDS011;23928;47.562;7.508;2024-02-15T00:45:46;4.80;;;3.60;;
38117;SDS011;23928;47.562;7.508;2024-02-15T00:48:11;4.83;;;3.60;;
38117;SDS011;23928;47.562;7.508;2024-02-15T00:50:37;4.67;;;3.30;;
38117;SDS011;23928;47.562;7.508;2024-02-15T00:53:03;6.20;;;3.67;;
38117;SDS011;23928;47.562;7.508;2024-02-15T00:55:28;4.90;;;3.53;;
38117;SDS011;23928;47.562;7.508;2024-02-15T00:57:54;6.73;;;3.80;;
38117;SDS011;23928;47.562;7.508;2024-02-15T01:00:20;6.77;;;3.60;;
38117;SDS011;23928;47.562;7.508;2024-02-15T01:02:45;6.27;;;3.27;;
38117;SDS011;23928;47.562;7.508;2024-02-15T01:05:11;5.20;;;3.27;;
38117;SDS011;23928;47.562;7.508;2024-02-15T01:07:40;4.70;;;3.23;;
38117;SDS011;23928;47.562;7.508;2024-02-15T01:10:06;7.53;;;3.30;;
38117;SDS011;23928;47.562;7.508;2024-02-15T01:12:32;5.87;;;3.37;;
38117;SDS011;23928;47.562;7.508;2024-02-15T01:14:58;4.70;;;3.10;;
38117;SDS011;23928;47.562;7.508;2024-02-15T01:17:24;6.00;;;3.53;;
38117;SDS011;23928;47.562;7.508;2024-02-15T01:19:49;8.77;;;3.60;;
38117;SDS011;23928;47.562;7.508;2024-02-15T01:22:15;5.10;;;3.63;;
38117;SDS011;23928;47.562;7.508;2024-02-15T01:24:41;6.43;;;2.87;;
38117;SDS011;23928;47.562;7.508;2024-02-15T01:27:07;4.43;;;3.07;;
38117;SDS011;23928;47.562;7.508;2024-02-15T01:29:33;8.47;;;3.10;;
38117;SDS011;23928;47.562;7.508;2024-02-15T01:32:00;4.27;;;3.10;;
38117;SDS011;23928;47.562;7.508;2024-02-15T01:34:27;4.87;;;3.00;;
38117;SDS011;23928;47.562;7.508;2024-02-15T01:36:53;4.27;;;3.20;;
38117;SDS011;23928;47.562;7.508;2024-02-15T01:39:19;5.63;;;3.10;;
38117;SDS011;23928;47.562;7.508;2024-02-15T01:41:47;4.33;;;3.23;;
38117;SDS011;23928;47.562;7.508;2024-02-15T01:44:16;2.97;;;2.67;;
38117;SDS011;23928;47.562;7.508;2024-02-15T01:46:43;5.17;;;3.13;;
38117;SDS011;23928;47.562;7.508;2024-02-15T01:49:10;4.23;;;3.10;;
38117;SDS011;23928;47.562;7.508;2024-02-15T01:51:36;4.43;;;3.07;;
38117;SDS011;23928;47.562;7.508;2024-02-15T01:54:02;3.90;;;3.07;;
38117;SDS011;23928;47.562;7.508;2024-02-15T01:56:29;2.67;;;2.23;;
38117;SDS011;23928;47.562;7.508;2024-02-15T01:58:56;3.90;;;2.60;;
38117;SDS011;23928;47.562;7.508;2024-02-15T02:01:23;3.40;;;2.80;;
38117;SDS011;23928;47.562;7.508;2024-02-15T02:03:49;3.93;;;3.03;;
38117;SDS011;23928;47.562;7.508;2024-02-15T02:06:14;3.77;;;2.93;;
38117;SDS011;23928;47.562;7.508;2024-02-15T02:08:41;5.07;;;2.80;;
38117;SDS011;23928;47.562;7.508;2024-02-15T02:11:06;4.27;;;3.13;;
38117;SDS011;23928;47.562;7.508;2024-02-15T02:13:32;3.30;;;2.90;;
38117;SDS011;23928;47.562;7.508;2024-02-15T02:15:57;3.90;;;2.90;;
38117;SDS011;23928;47.562;7.508;2024-02-15T02:18:25;3.63;;;2.87;;
38117;SDS011;23928;47.562;7.508;2024-02-15T02:20:50;3.23;;;2.57;;
38117;SDS011;23928;47.562;7.508;2024-02-15T02:23:17;3.63;;;2.90;;
38117;SDS011;23928;47.562;7.508;2024-02-15T02:25:47;4.70;;;2.57;;
38117;SDS011;23928;47.562;7.508;2024-02-15T02:28:14;5.37;;;2.90;;
38117;SDS011;23928;47.562;7.508;2024-02-15T02:30:41;4.77;;;2.80;;
38117;SDS011;23928;47.562;7.508;2024-02-15T02:33:11;3.80;;;2.77;;
38117;SDS011;23928;47.562;7.508;2024-02-15T02:35:43;3.67;;;2.73;;
38117;SDS011;23928;47.562;7.508;2024-02-15T02:38:09;4.93;;;2.87;;
38117;SDS011;23928;47.562;7.508;2024-02-15T02:40:35;5.90;;;3.83;;
38117;SDS011;23928;47.562;7.508;2024-02-15T02:43:01;4.40;;;2.80;;
38117;SDS011;23928;47.562;7.508;2024-02-15T02:45:27;5.93;;;2.80;;
38117;SDS011;23928;47.562;7.508;2024-02-15T02:47:53;4.90;;;2.53;;
38117;SDS011;23928;47.562;7.508;2024-02-15T02:50:19;4.40;;;2.50;;
38117;SDS011;23928;47.562;7.508;2024-02-15T02:52:46;3.90;;;2.87;;
38117;SDS011;23928;47.562;7.508;2024-02-15T02:55:13;3.57;;;2.73;;
38117;SDS011;23928;47.562;7.508;2024-02-15T02:57:39;5.07;;;2.90;;
38117;SDS011;23928;47.562;7.508;2024-02-15T03:00:05;3.17;;;2.50;;
38117;SDS011;23928;47.562;7.508;2024-02-15T03:02:40;5.50;;;2.33;;
38117;SDS011;23928;47.562;7.508;2024-02-15T03:05:08;4.10;;;2.40;;
38117;SDS011;23928;47.562;7.508;2024-02-15T03:07:36;5.37;;;2.70;;
38117;SDS011;23928;47.562;7.508;2024-02-15T03:10:02;5.40;;;3.00;;
38117;SDS011;23928;47.562;7.508;2024-02-15T03:12:38;4.20;;;2.50;;
38117;SDS011;23928;47.562;7.508;2024-02-15T03:15:04;4.07;;;2.73;;
38117;SDS011;23928;47.562;7.508;2024-02-15T03:17:36;4.30;;;2.57;;
38117;SDS011;23928;47.562;7.508;2024-02-15T03:20:06;4.43;;;3.03;;
38117;SDS011;23928;47.562;7.508;2024-02-15T03:22:37;4.13;;;2.73;;
38117;SDS011;23928;47.562;7.508;2024-02-15T03:25:03;5.83;;;3.07;;
38117;SDS011;23928;47.562;7.508;2024-02-15T03:27:32;4.80;;;2.43;;
38117;SDS011;23928;47.562;7.508;2024-02-15T03:30:05;6.03;;;2.93;;
38117;SDS011;23928;47.562;7.508;2024-02-15T03:32:31;8.57;;;4.03;;
38117;SDS011;23928;47.562;7.508;2024-02-15T03:34:57;5.33;;;3.60;;
38117;SDS011;23928;47.562;7.508;2024-02-15T03:37:24;5.10;;;3.10;;
38117;SDS011;23928;47.562;7.508;2024-02-15T03:39:50;6.10;;;3.40;;
38117;SDS011;23928;47.562;7.508;2024-02-15T03:42:15;5.57;;;3.73;;
38117;SDS011;23928;47.562;7.508;2024-02-15T03:44:41;8.20;;;4.07;;
38117;SDS011;23928;47.562;7.508;2024-02-15T03:47:06;6.47;;;3.80;;
38117;SDS011;23928;47.562;7.508;2024-02-15T03:49:32;7.03;;;3.63;;
38117;SDS011;23928;47.562;7.508;2024-02-15T03:51:58;7.40;;;3.70;;
38117;SDS011;23928;47.562;7.508;2024-02-15T03:54:26;6.67;;;3.30;;
38117;SDS011;23928;47.562;7.508;2024-02-15T03:56:52;5.70;;;3.20;;
38117;SDS011;23928;47.562;7.508;2024-02-15T03:59:21;5.20;;;3.03;;
38117;SDS011;23928;47.562;7.508;2024-02-15T04:01:54;3.97;;;3.03;;
38117;SDS011;23928;47.562;7.508;2024-02-15T04:04:21;5.73;;;2.70;;
38117;SDS011;23928;47.562;7.508;2024-02-15T04:06:48;4.00;;;2.33;;
38117;SDS011;23928;47.562;7.508;2024-02-15T04:09:17;4.13;;;2.57;;
38117;SDS011;23928;47.562;7.508;2024-02-15T04:11:49;3.20;;;2.20;;
38117;SDS011;23928;47.562;7.508;2024-02-15T04:14:18;3.70;;;2.30;;
38117;SDS011;23928;47.562;7.508;2024-02-15T04:16:44;3.13;;;2.10;;
38117;SDS011;23928;47.562;7.508;2024-02-15T04:19:10;3.40;;;2.57;;
38117;SDS011;23928;47.562;7.508;2024-02-15T04:21:36;3.10;;;2.57;;
38117;SDS011;23928;47.562;7.508;2024-02-15T04:24:02;6.70;;;3.07;;
38117;SDS011;23928;47.562;7.508;2024-02-15T04:26:28;3.90;;;2.47;;
38117;SDS011;23928;47.562;7.508;2024-02-15T04:28:55;3.23;;;2.47;;
38117;SDS011;23928;47.562;7.508;2024-02-15T04:31:21;3.93;;;2.23;;
38117;SDS011;23928;47.562;7.508;2024-02-15T04:33:55;4.20;;;2.67;;
38117;SDS011;23928;47.562;7.508;2024-02-15T04:36:21;4.67;;;2.53;;
38117;SDS011;23928;47.562;7.508;2024-02-15T04:38:51;7.53;;;3.30;;
38117;SDS011;23928;47.562;7.508;2024-02-15T04:41:20;5.30;;;3.10;;
38117;SDS011;23928;47.562;7.508;2024-02-15T04:43:48;5.00;;;3.10;;
38117;SDS011;23928;47.562;7.508;2024-02-15T04:46:14;4.33;;;2.90;;
38117;SDS011;23928;47.562;7.508;2024-02-15T04:48:40;3.00;;;2.60;;
38117;SDS011;23928;47.562;7.508;2024-02-15T04:51:07;3.40;;;2.90;;
38117;SDS011;23928;47.562;7.508;2024-02-15T04:53:34;4.13;;;2.70;;
38117;SDS011;23928;47.562;7.508;2024-02-15T04:56:01;4.03;;;3.03;;
38117;SDS011;23928;47.562;7.508;2024-02-15T04:58:31;4.43;;;3.20;;
38117;SDS011;23928;47.562;7.508;2024-02-15T05:01:01;5.30;;;3.50;;
38117;SDS011;23928;47.562;7.508;2024-02-15T05:03:29;6.43;;;3.63;;
38117;SDS011;23928;47.562;7.508;2024-02-15T05:05:59;7.37;;;3.47;;
38117;SDS011;23928;47.562;7.508;2024-02-15T05:08:25;5.03;;;3.20;;
38117;SDS011;23928;47.562;7.508;2024-02-15T05:10:51;4.90;;;3.17;;
38117;SDS011;23928;47.562;7.508;2024-02-15T05:13:21;3.60;;;2.93;;
38117;SDS011;23928;47.562;7.508;2024-02-15T05:15:49;3.60;;;2.97;;
38117;SDS011;23928;47.562;7.508;2024-02-15T05:18:14;6.43;;;3.03;;
38117;SDS011;23928;47.562;7.508;2024-02-15T05:20:42;2.93;;;2.57;;
38117;SDS011;23928;47.562;7.508;2024-02-15T05:23:07;3.30;;;3.00;;
38117;SDS011;23928;47.562;7.508;2024-02-15T05:25:33;3.63;;;2.90;;
38117;SDS011;23928;47.562;7.508;2024-02-15T05:28:00;4.83;;;2.97;;
38117;SDS011;23928;47.562;7.508;2024-02-15T05:30:26;5.33;;;4.20;;
38117;SDS011;23928;47.562;7.508;2024-02-15T05:32:52;7.10;;;4.20;;
38117;SDS011;23928;47.562;7.508;2024-02-15T05:35:18;5.57;;;4.30;;
38117;SDS011;23928;47.562;7.508;2024-02-15T05:37:44;7.80;;;4.53;;
38117;SDS011;23928;47.562;7.508;2024-02-15T05:40:11;6.07;;;3.80;;
38117;SDS011;23928;47.562;7.508;2024-02-15T05:42:43;8.10;;;4.00;;
38117;SDS011;23928;47.562;7.508;2024-02-15T05:47:49;5.43;;;3.30;;
38117;SDS011;23928;47.562;7.508;2024-02-15T05:50:16;4.43;;;3.40;;
38117;SDS011;23928;47.562;7.508;2024-02-15T05:52:45;5.17;;;3.63;;
38117;SDS011;23928;47.562;7.508;2024-02-15T05:55:11;6.43;;;3.83;;
38117;SDS011;23928;47.562;7.508;2024-02-15T05:57:41;5.10;;;3.27;;
38117;SDS011;23928;47.562;7.508;2024-02-15T06:00:10;4.50;;;3.03;;
38117;SDS011;23928;47.562;7.508;2024-02-15T06:02:36;8.37;;;5.17;;
38117;SDS011;23928;47.562;7.508;2024-02-15T06:05:02;7.37;;;4.40;;
38117;SDS011;23928;47.562;7.508;2024-02-15T06:07:29;3.40;;;2.90;;
38117;SDS011;23928;47.562;7.508;2024-02-15T06:09:58;7.77;;;4.33;;
38117;SDS011;23928;47.562;7.508;2024-02-15T06:12:28;7.40;;;5.30;;
38117;SDS011;23928;47.562;7.508;2024-02-15T06:14:54;8.47;;;5.57;;
38117;SDS011;23928;47.562;7.508;2024-02-15T06:17:20;12.20;;;4.93;;
38117;SDS011;23928;47.562;7.508;2024-02-15T06:19:45;6.63;;;4.27;;
38117;SDS011;23928;47.562;7.508;2024-02-15T06:22:11;8.33;;;4.90;;
38117;SDS011;23928;47.562;7.508;2024-02-15T06:24:37;12.87;;;5.90;;
38117;SDS011;23928;47.562;7.508;2024-02-15T06:27:04;10.23;;;5.40;;
38117;SDS011;23928;47.562;7.508;2024-02-15T06:29:30;9.63;;;5.03;;
38117;SDS011;23928;47.562;7.508;2024-02-15T06:32:15;8.53;;;4.80;;
38117;SDS011;23928;47.562;7.508;2024-02-15T06:34:59;9.30;;;4.40;;
38117;SDS011;23928;47.562;7.508;2024-02-15T06:37:43;8.00;;;4.40;;
38117;SDS011;23928;47.562;7.508;2024-02-15T06:40:27;9.30;;;5.80;;
38117;SDS011;23928;47.562;7.508;2024-02-15T06:42:53;7.37;;;4.77;;
38117;SDS011;23928;47.562;7.508;2024-02-15T06:45:19;9.50;;;5.40;;
38117;SDS011;23928;47.562;7.508;2024-02-15T06:47:45;6.83;;;4.77;;
38117;SDS011;23928;47.562;7.508;2024-02-15T06:50:14;7.90;;;4.77;;
38117;SDS011;23928;47.562;7.508;2024-02-15T06:52:43;7.73;;;5.03;;
38117;SDS011;23928;47.562;7.508;2024-02-15T06:55:09;11.57;;;5.30;;
38117;SDS011;23928;47.562;7.508;2024-02-15T06:57:38;7.00;;;5.23;;
38117;SDS011;23928;47.562;7.508;2024-02-15T07:00:07;8.97;;;5.27;;
38117;SDS011;23928;47.562;7.508;2024-02-15T07:02:39;10.80;;;5.40;;
38117;SDS011;23928;47.562;7.508;2024-02-15T07:05:05;9.30;;;5.30;;
38117;SDS011;23928;47.562;7.508;2024-02-15T07:07:31;11.03;;;5.93;;
38117;SDS011;23928;47.562;7.508;2024-02-15T07:09:57;10.13;;;5.80;;
38117;SDS011;23928;47.562;7.508;2024-02-15T07:12:23;13.20;;;5.63;;
38117;SDS011;23928;47.562;7.508;2024-02-15T07:14:49;9.93;;;5.57;;
38117;SDS011;23928;47.562;7.508;2024-02-15T07:17:15;11.10;;;6.50;;
38117;SDS011;23928;47.562;7.508;2024-02-15T07:19:42;9.67;;;5.33;;
38117;SDS011;23928;47.562;7.508;2024-02-15T07:22:09;8.27;;;5.03;;
38117;SDS011;23928;47.562;7.508;2024-02-15T07:24:35;6.77;;;4.80;;
38117;SDS011;23928;47.562;7.508;2024-02-15T07:27:03;7.20;;;4.53;;
38117;SDS011;23928;47.562;7.508;2024-02-15T07:29:31;10.43;;;5.30;;
38117;SDS011;23928;47.562;7.508;2024-02-15T07:32:02;6.37;;;4.70;;
38117;SDS011;23928;47.562;7.508;2024-02-15T07:34:29;8.37;;;5.50;;
38117;SDS011;23928;47.562;7.508;2024-02-15T07:36:58;7.87;;;5.10;;
38117;SDS011;23928;47.562;7.508;2024-02-15T07:39:24;8.87;;;4.93;;
38117;SDS011;23928;47.562;7.508;2024-02-15T07:41:53;9.20;;;4.97;;
38117;SDS011;23928;47.562;7.508;2024-02-15T07:44:19;7.83;;;5.57;;
38117;SDS011;23928;47.562;7.508;2024-02-15T07:46:46;7.70;;;5.33;;
38117;SDS011;23928;47.562;7.508;2024-02-15T07:49:12;9.33;;;5.50;;
38117;SDS011;23928;47.562;7.508;2024-02-15T07:51:38;9.80;;;5.30;;
38117;SDS011;23928;47.562;7.508;2024-02-15T07:54:03;6.03;;;5.00;;
38117;SDS011;23928;47.562;7.508;2024-02-15T07:56:29;7.47;;;5.33;;
38117;SDS011;23928;47.562;7.508;2024-02-15T07:58:55;10.33;;;6.17;;
38117;SDS011;23928;47.562;7.508;2024-02-15T08:01:21;9.40;;;5.80;;
38117;SDS011;23928;47.562;7.508;2024-02-15T08:03:47;8.30;;;6.10;;
38117;SDS011;23928;47.562;7.508;2024-02-15T08:06:14;11.87;;;6.53;;
38117;SDS011;23928;47.562;7.508;2024-02-15T08:08:41;12.53;;;6.53;;
38117;SDS011;23928;47.562;7.508;2024-02-15T08:11:13;12.83;;;6.73;;
38117;SDS011;23928;47.562;7.508;2024-02-15T08:13:49;10.90;;;7.70;;
38117;SDS011;23928;47.562;7.508;2024-02-15T08:16:19;18.53;;;11.07;;
38117;SDS011;23928;47.562;7.508;2024-02-15T08:18:49;11.57;;;7.30;;
38117;SDS011;23928;47.562;7.508;2024-02-15T08:21:24;11.83;;;9.50;;
38117;SDS011;23928;47.562;7.508;2024-02-15T08:23:54;13.90;;;7.50;;
38117;SDS011;23928;47.562;7.508;2024-02-15T08:26:20;14.77;;;9.47;;
38117;SDS011;23928;47.562;7.508;2024-02-15T08:28:46;16.63;;;10.50;;
38117;SDS011;23928;47.562;7.508;2024-02-15T08:31:12;19.63;;;13.57;;
38117;SDS011;23928;47.562;7.508;2024-02-15T08:33:40;17.50;;;11.27;;
38117;SDS011;23928;47.562;7.508;2024-02-15T08:36:08;14.27;;;8.37;;
38117;SDS011;23928;47.562;7.508;2024-02-15T08:38:35;16.67;;;9.97;;
38117;SDS011;23928;47.562;7.508;2024-02-15T08:41:02;18.37;;;12.17;;
38117;SDS011;23928;47.562;7.508;2024-02-15T08:43:29;15.20;;;9.40;;
38117;SDS011;23928;47.562;7.508;2024-02-15T08:45:57;13.40;;;8.17;;
38117;SDS011;23928;47.562;7.508;2024-02-15T08:48:23;14.23;;;9.67;;
38117;SDS011;23928;47.562;7.508;2024-02-15T08:50:49;13.93;;;8.70;;
38117;SDS011;23928;47.562;7.508;2024-02-15T08:53:15;14.67;;;8.60;;
38117;SDS011;23928;47.562;7.508;2024-02-15T08:55:41;16.00;;;8.63;;
38117;SDS011;23928;47.562;7.508;2024-02-15T08:58:06;13.13;;;8.80;;
38117;SDS011;23928;47.562;7.508;2024-02-15T09:00:34;12.93;;;8.00;;
38117;SDS011;23928;47.562;7.508;2024-02-15T09:03:00;11.97;;;8.07;;
38117;SDS011;23928;47.562;7.508;2024-02-15T09:05:26;14.13;;;8.93;;
38117;SDS011;23928;47.562;7.508;2024-02-15T09:07:52;12.63;;;8.80;;
38117;SDS011;23928;47.562;7.508;2024-02-15T09:10:19;16.17;;;10.83;;
38117;SDS011;23928;47.562;7.508;2024-02-15T09:12:47;11.63;;;8.03;;
38117;SDS011;23928;47.562;7.508;2024-02-15T09:15:13;14.37;;;8.40;;
38117;SDS011;23928;47.562;7.508;2024-02-15T09:17:39;14.30;;;7.90;;
38117;SDS011;23928;47.562;7.508;2024-02-15T09:20:09;10.27;;;7.63;;
38117;SDS011;23928;47.562;7.508;2024-02-15T09:22:48;12.07;;;7.67;;
38117;SDS011;23928;47.562;7.508;2024-02-15T09:25:19;14.20;;;8.17;;
38117;SDS011;23928;47.562;7.508;2024-02-15T09:27:45;10.03;;;7.37;;
38117;SDS011;23928;47.562;7.508;2024-02-15T09:30:11;13.43;;;7.47;;
38117;SDS011;23928;47.562;7.508;2024-02-15T09:32:41;22.50;;;11.60;;
38117;SDS011;23928;47.562;7.508;2024-02-15T09:35:08;14.83;;;8.23;;
38117;SDS011;23928;47.562;7.508;2024-02-15T09:37:36;11.13;;;7.53;;
38117;SDS011;23928;47.562;7.508;2024-02-15T09:40:17;13.43;;;7.90;;
38117;SDS011;23928;47.562;7.508;2024-02-15T09:42:43;13.83;;;7.53;;
38117;SDS011;23928;47.562;7.508;2024-02-15T09:45:11;13.53;;;7.43;;
38117;SDS011;23928;47.562;7.508;2024-02-15T09:47:38;8.93;;;6.13;;
38117;SDS011;23928;47.562;7.508;2024-02-15T09:50:06;8.80;;;6.77;;
38117;SDS011;23928;47.562;7.508;2024-02-15T09:52:32;11.80;;;6.90;;
38117;SDS011;23928;47.562;7.508;2024-02-15T09:55:02;13.30;;;6.50;;
38117;SDS011;23928;47.562;7.508;2024-02-15T09:57:31;10.77;;;7.10;;
38117;SDS011;23928;47.562;7.508;2024-02-15T09:59:58;9.93;;;6.40;;
38117;SDS011;23928;47.562;7.508;2024-02-15T10:02:26;10.83;;;6.87;;
38117;SDS011;23928;47.562;7.508;2024-02-15T10:04:52;8.97;;;6.27;;
38117;SDS011;23928;47.562;7.508;2024-02-15T10:07:21;9.93;;;6.33;;
38117;SDS011;23928;47.562;7.508;2024-02-15T10:09:48;13.00;;;7.73;;
38117;SDS011;23928;47.562;7.508;2024-02-15T10:12:13;11.80;;;7.60;;
38117;SDS011;23928;47.562;7.508;2024-02-15T10:14:44;8.83;;;6.17;;
38117;SDS011;23928;47.562;7.508;2024-02-15T10:17:18;13.00;;;6.30;;
38117;SDS011;23928;47.562;7.508;2024-02-15T10:19:44;9.53;;;6.83;;
38117;SDS011;23928;47.562;7.508;2024-02-15T10:22:12;8.67;;;5.83;;
38117;SDS011;23928;47.562;7.508;2024-02-15T10:24:39;10.20;;;5.83;;
38117;SDS011;23928;47.562;7.508;2024-02-15T10:27:06;8.53;;;5.83;;
38117;SDS011;23928;47.562;7.508;2024-02-15T10:29:35;8.60;;;4.93;;
38117;SDS011;23928;47.562;7.508;2024-02-15T10:32:01;9.13;;;5.77;;
38117;SDS011;23928;47.562;7.508;2024-02-15T10:34:28;8.27;;;4.83;;
38117;SDS011;23928;47.562;7.508;2024-02-15T10:36:55;7.17;;;5.27;;
38117;SDS011;23928;47.562;7.508;2024-02-15T10:39:36;7.27;;;5.07;;
38117;SDS011;23928;47.562;7.508;2024-02-15T10:42:02;7.63;;;4.80;;
38117;SDS011;23928;47.562;7.508;2024-02-15T10:44:31;7.43;;;4.90;;
38117;SDS011;23928;47.562;7.508;2024-02-15T10:46:59;9.90;;;4.93;;
38117;SDS011;23928;47.562;7.508;2024-02-15T10:49:25;7.40;;;4.83;;
38117;SDS011;23928;47.562;7.508;2024-02-15T10:51:56;8.80;;;5.30;;
38117;SDS011;23928;47.562;7.508;2024-02-15T10:57:04;6.57;;;4.80;;
38117;SDS011;23928;47.562;7.508;2024-02-15T10:59:34;7.33;;;4.40;;
38117;SDS011;23928;47.562;7.508;2024-02-15T11:02:03;6.80;;;5.10;;
38117;SDS011;23928;47.562;7.508;2024-02-15T11:04:39;7.23;;;4.30;;
38117;SDS011;23928;47.562;7.508;2024-02-15T11:07:09;8.87;;;4.93;;
38117;SDS011;23928;47.562;7.508;2024-02-15T11:09:36;9.13;;;4.40;;
38117;SDS011;23928;47.562;7.508;2024-02-15T11:12:02;8.23;;;4.87;;
38117;SDS011;23928;47.562;7.508;2024-02-15T11:14:30;6.10;;;4.87;;
38117;SDS011;23928;47.562;7.508;2024-02-15T11:17:00;6.73;;;4.03;;
38117;SDS011;23928;47.562;7.508;2024-02-15T11:22:00;7.63;;;4.50;;
38117;SDS011;23928;47.562;7.508;2024-02-15T11:24:29;5.50;;;4.27;;
38117;SDS011;23928;47.562;7.508;2024-02-15T11:27:03;7.20;;;4.10;;
38117;SDS011;23928;47.562;7.508;2024-02-15T11:35:15;7.53;;;4.13;;
38117;SDS011;23928;47.562;7.508;2024-02-15T11:43:09;4.43;;;3.83;;
38117;SDS011;23928;47.562;7.508;2024-02-15T11:45:36;9.03;;;4.17;;
38117;SDS011;23928;47.562;7.508;2024-02-15T11:48:09;4.60;;;3.83;;
38117;SDS011;23928;47.562;7.508;2024-02-15T11:50:36;5.27;;;3.70;;
38117;SDS011;23928;47.562;7.508;2024-02-15T11:53:04;5.93;;;4.23;;
38117;SDS011;23928;47.562;7.508;2024-02-15T11:55:34;7.33;;;3.73;;
38117;SDS011;23928;47.562;7.508;2024-02-15T11:58:01;7.37;;;4.80;;
38117;SDS011;23928;47.562;7.508;2024-02-15T12:00:30;4.50;;;3.67;;
38117;SDS011;23928;47.562;7.508;2024-02-15T12:03:16;5.47;;;3.87;;
38117;SDS011;23928;47.562;7.508;2024-02-15T12:06:01;5.67;;;3.73;;
38117;SDS011;23928;47.562;7.508;2024-02-15T12:08:49;8.70;;;4.60;;
38117;SDS011;23928;47.562;7.508;2024-02-15T12:11:57;5.93;;;3.50;;
38117;SDS011;23928;47.562;7.508;2024-02-15T12:14:41;5.40;;;3.80;;
38117;SDS011;23928;47.562;7.508;2024-02-15T12:17:26;7.10;;;3.97;;
38117;SDS011;23928;47.562;7.508;2024-02-15T12:20:10;6.53;;;3.57;;
38117;SDS011;23928;47.562;7.508;2024-02-15T12:22:39;6.33;;;3.60;;
38117;SDS011;23928;47.562;7.508;2024-02-15T12:25:07;5.07;;;3.60;;
38117;SDS011;23928;47.562;7.508;2024-02-15T12:27:39;4.53;;;3.30;;
38117;SDS011;23928;47.562;7.508;2024-02-15T12:30:14;5.13;;;3.50;;
38117;SDS011;23928;47.562;7.508;2024-02-15T12:32:45;4.43;;;3.27;;
38117;SDS011;23928;47.562;7.508;2024-02-15T12:35:12;4.87;;;3.27;;
38117;SDS011;23928;47.562;7.508;2024-02-15T12:37:44;5.23;;;2.80;;
38117;SDS011;23928;47.562;7.508;2024-02-15T12:40:11;4.77;;;3.23;;
38117;SDS011;23928;47.562;7.508;2024-02-15T12:42:43;6.07;;;3.43;;
38117;SDS011;23928;47.562;7.508;2024-02-15T12:45:19;4.60;;;3.23;;
38117;SDS011;23928;47.562;7.508;2024-02-15T12:47:49;7.50;;;3.67;;
38117;SDS011;23928;47.562;7.508;2024-02-15T12:50:16;5.93;;;3.23;;
38117;SDS011;23928;47.562;7.508;2024-02-15T12:52:44;5.27;;;3.10;;
38117;SDS011;23928;47.562;7.508;2024-02-15T12:57:41;6.47;;;3.23;;
38117;SDS011;23928;47.562;7.508;2024-02-15T13:00:11;4.63;;;3.47;;
38117;SDS011;23928;47.562;7.508;2024-02-15T13:02:46;4.80;;;3.67;;
38117;SDS011;23928;47.562;7.508;2024-02-15T13:05:19;5.80;;;3.20;;
38117;SDS011;23928;47.562;7.508;2024-02-15T13:07:46;8.23;;;3.53;;
38117;SDS011;23928;47.562;7.508;2024-02-15T13:10:13;4.30;;;3.40;;
38117;SDS011;23928;47.562;7.508;2024-02-15T13:12:40;6.27;;;3.50;;
38117;SDS011;23928;47.562;7.508;2024-02-15T13:15:06;4.27;;;3.30;;
38117;SDS011;23928;47.562;7.508;2024-02-15T13:17:36;7.03;;;4.03;;
38117;SDS011;23928;47.562;7.508;2024-02-15T13:20:03;7.17;;;3.60;;
38117;SDS011;23928;47.562;7.508;2024-02-15T13:22:32;5.53;;;3.10;;
38117;SDS011;23928;47.562;7.508;2024-02-15T13:24:59;3.83;;;2.77;;
38117;SDS011;23928;47.562;7.508;2024-02-15T13:27:25;4.63;;;2.93;;
38117;SDS011;23928;47.562;7.508;2024-02-15T13:29:51;5.93;;;3.07;;
38117;SDS011;23928;47.562;7.508;2024-02-15T13:32:18;4.90;;;2.77;;
38117;SDS011;23928;47.562;7.508;2024-02-15T13:34:46;4.77;;;3.30;;
38117;SDS011;23928;47.562;7.508;2024-02-15T13:37:16;4.20;;;2.90;;
38117;SDS011;23928;47.562;7.508;2024-02-15T13:39:42;5.13;;;3.00;;
38117;SDS011;23928;47.562;7.508;2024-02-15T13:42:10;7.53;;;3.17;;
38117;SDS011;23928;47.562;7.508;2024-02-15T13:44:36;7.07;;;3.30;;
38117;SDS011;23928;47.562;7.508;2024-02-15T13:47:02;5.97;;;3.40;;
38117;SDS011;23928;47.562;7.508;2024-02-15T13:49:28;4.13;;;3.10;;
38117;SDS011;23928;47.562;7.508;2024-02-15T13:51:56;3.33;;;3.03;;
38117;SDS011;23928;47.562;7.508;2024-02-15T13:54:28;3.70;;;2.70;;
38117;SDS011;23928;47.562;7.508;2024-02-15T13:56:57;5.30;;;2.90;;
38117;SDS011;23928;47.562;7.508;2024-02-15T13:59:23;5.23;;;2.87;;
38117;SDS011;23928;47.562;7.508;2024-02-15T14:01:48;3.10;;;2.20;;
38117;SDS011;23928;47.562;7.508;2024-02-15T14:04:14;7.50;;;3.37;;
38117;SDS011;23928;47.562;7.508;2024-02-15T14:06:41;6.33;;;3.00;;
38117;SDS011;23928;47.562;7.508;2024-02-15T14:09:09;9.97;;;3.33;;
38117;SDS011;23928;47.562;7.508;2024-02-15T14:11:36;6.60;;;3.20;;
38117;SDS011;23928;47.562;7.508;2024-02-15T14:14:02;5.60;;;3.13;;
38117;SDS011;23928;47.562;7.508;2024-02-15T14:16:28;3.97;;;2.80;;
38117;SDS011;23928;47.562;7.508;2024-02-15T14:18:54;5.07;;;2.87;;
38117;SDS011;23928;47.562;7.508;2024-02-15T14:21:20;6.10;;;3.20;;
38117;SDS011;23928;47.562;7.508;2024-02-15T14:23:46;6.53;;;3.27;;
38117;SDS011;23928;47.562;7.508;2024-02-15T14:26:11;5.87;;;3.70;;
38117;SDS011;23928;47.562;7.508;2024-02-15T14:28:37;6.07;;;3.50;;
38117;SDS011;23928;47.562;7.508;2024-02-15T14:31:07;3.80;;;2.47;;
38117;SDS011;23928;47.562;7.508;2024-02-15T14:33:51;4.40;;;2.70;;
38117;SDS011;23928;47.562;7.508;2024-02-15T14:36:17;4.00;;;2.90;;
38117;SDS011;23928;47.562;7.508;2024-02-15T14:38:43;4.20;;;2.80;;
38117;SDS011;23928;47.562;7.508;2024-02-15T14:41:09;7.33;;;2.40;;
38117;SDS011;23928;47.562;7.508;2024-02-15T14:43:36;5.30;;;2.80;;
38117;SDS011;23928;47.562;7.508;2024-02-15T14:46:02;3.77;;;2.30;;
38117;SDS011;23928;47.562;7.508;2024-02-15T14:48:30;3.77;;;2.40;;
38117;SDS011;23928;47.562;7.508;2024-02-15T14:50:56;2.57;;;2.30;;
38117;SDS011;23928;47.562;7.508;2024-02-15T14:53:22;5.10;;;2.60;;
38117;SDS011;23928;47.562;7.508;2024-02-15T14:55:52;4.70;;;2.33;;
38117;SDS011;23928;47.562;7.508;2024-02-15T14:58:18;5.07;;;2.60;;
38117;SDS011;23928;47.562;7.508;2024-02-15T15:00:45;4.53;;;2.43;;
38117;SDS011;23928;47.562;7.508;2024-02-15T15:03:11;2.27;;;1.93;;
38117;SDS011;23928;47.562;7.508;2024-02-15T15:05:38;3.73;;;2.27;;
38117;SDS011;23928;47.562;7.508;2024-02-15T15:08:25;3.23;;;2.30;;
38117;SDS011;23928;47.562;7.508;2024-02-15T15:11:09;4.37;;;2.33;;
38117;SDS011;23928;47.562;7.508;2024-02-15T15:13:53;5.73;;;3.30;;